Etusivu
METAR-TAF:

METAR-TAF

Lentoasemat :

Eastmain River, Quebec, Kanada

Leveyspiiri: 52-14N, Pituuspiiri: 078-31W, korkeus merenpinnasta: 7 m

Tämänhetkinen sää

Tämä raportti tehtiin 40 minuuttia sitten, kello 14.00 UTC
Tuuli 7 kn lounaasta, vaihdellen etelän/lounaan ja lännen välillä
Lämpötila -8°C
Kosteus 85%
Ilmanpaine 1024 hPa
Näkyvyys: 8.0 km
Pilvistä 1600 ft:n korkeudessa
heikkoa lumisadetta

METAR: CZEM 131400Z 23007KT 210V270 5SM -SN OVC016 M08/M10 A3025 RMK SN1SF7 /SO1/ AFTER 122100 UTC SLP246

Aika: 09:40 (14:40 UTC)


TAF: puuttuu

Säähavainnot ja -ennusteet yli 4000 lentoasemalta (METAR- ja TAF-raportit).

Käytössä olevat sääasemat on merkitty karttaan keltaisilla ja punaisilla pisteillä.

Aseta hiiri pisteen päälle nähdäksesi sääaseman nimen.

Klikkaa sitten nähdäksesi säähavainnot ja -ennusteet.

Kartan vaihtaminen: klikkaa mustalla rastilla varustettuja vihreitä pisteitä, niin voit zoomata sisään; viivalla varustettua vihreää pistettä, niin voit zoomata ulos tai vihreitä nuolia, niin pääset viereisille kartoille.


METAR-TAF: